Time;durP1;ratioP1;P1;durP2;ratioP2;P2;SDS_P1;SDS_P2;PMS_P1;PMS_P2;Temp;Humidity;BMP_temperature;BMP_pressure;BME280_temperature;BME280_humidity;BME280_pressure;Samples;Min_cycle;Max_cycle;Signal;HPM_P1;HPM_P2
2021/09/25 00:01:19;;;;;;;5.10;3.15;;;17.30;99.90;17.40;100511.00;;;;4986017;28;109556;-72
2021/09/25 00:03:45;;;;;;;6.65;3.33;;;17.30;99.90;17.40;100507.00;;;;4954935;28;92877;-72
2021/09/25 00:06:10;;;;;;;3.30;2.85;;;17.30;99.90;17.40;100509.00;;;;4973599;28;93407;-71
2021/09/25 00:08:36;;;;;;;5.57;3.03;;;17.30;99.90;17.40;100511.00;;;;4973858;28;93134;-69
2021/09/25 00:11:02;;;;;;;3.67;2.75;;;17.30;99.90;17.40;100514.00;;;;4973423;28;93147;-70
2021/09/25 00:13:28;;;;;;;5.45;3.28;;;17.30;99.90;17.40;100497.00;;;;4973053;28;92893;-69
2021/09/25 00:15:54;;;;;;;3.40;3.10;;;16.30;99.90;17.40;100511.00;;;;4971753;28;123773;-70
2021/09/25 00:18:19;;;;;;;2.50;2.30;;;17.30;99.90;17.40;100507.00;;;;4971893;28;125376;-69
2021/09/25 00:20:45;;;;;;;4.38;3.13;;;17.30;99.90;17.40;100507.00;;;;4972406;28;111511;-71
2021/09/25 00:23:11;;;;;;;6.40;2.83;;;17.30;99.90;17.40;100504.00;;;;4972575;28;106306;-70
2021/09/25 00:25:37;;;;;;;4.43;3.20;;;17.30;99.90;17.40;100503.00;;;;4954165;28;93646;-71
2021/09/25 00:28:04;;;;;;;6.90;3.53;;;17.30;99.90;17.40;100502.00;;;;4972289;28;92810;-68
2021/09/25 00:30:30;;;;;;;4.65;3.20;;;17.30;99.90;17.40;100507.00;;;;4954751;28;92865;-69
2021/09/25 00:32:56;;;;;;;7.55;3.40;;;17.30;99.90;17.40;100507.00;;;;4973224;28;92296;-70
2021/09/25 00:35:21;;;;;;;7.57;2.92;;;17.30;99.90;17.40;100499.00;;;;4971423;28;120121;-70
2021/09/25 00:37:47;;;;;;;5.50;2.33;;;17.30;99.90;17.50;100512.00;;;;4969597;28;122113;-70
2021/09/25 00:40:16;;;;;;;3.80;2.85;;;17.30;99.90;17.50;100498.00;;;;4972374;28;93807;-70
2021/09/25 00:42:42;;;;;;;4.22;3.03;;;17.30;99.90;17.50;100504.00;;;;4952945;28;92896;-71
2021/09/25 00:45:09;;;;;;;5.75;2.90;;;17.30;99.90;17.50;100502.00;;;;4971138;28;93217;-70
2021/09/25 00:47:36;;;;;;;4.32;2.65;;;17.40;99.90;17.50;100507.00;;;;4972633;28;93145;-70
2021/09/25 00:50:03;;;;;;;4.90;3.08;;;17.40;99.90;17.50;100508.00;;;;4939618;28;93026;-70
2021/09/25 00:52:29;;;;;;;3.28;2.97;;;17.40;99.90;17.60;100505.00;;;;4952513;28;92799;-72
2021/09/25 00:54:55;;;;;;;5.35;4.07;;;17.40;99.90;17.60;100505.00;;;;4971145;28;101542;-71
2021/09/25 00:57:21;;;;;;;3.88;2.67;;;17.40;99.90;17.60;100505.00;;;;4972643;28;121427;-70
2021/09/25 00:59:46;;;;;;;3.45;2.42;;;17.40;99.90;17.60;100507.00;;;;4972936;28;92739;-69
2021/09/25 01:02:17;;;;;;;3.47;2.40;;;17.40;99.90;17.60;100509.00;;;;4954654;28;93011;-70
2021/09/25 01:04:46;;;;;;;3.67;2.67;;;17.40;99.90;17.60;100521.00;;;;4971794;28;94070;-70
2021/09/25 01:07:12;;;;;;;2.95;2.53;;;17.50;99.90;17.60;100506.00;;;;4972522;28;94082;-70
2021/09/25 01:09:38;;;;;;;4.57;2.42;;;17.40;99.90;17.60;100517.00;;;;4952843;28;109638;-70
2021/09/25 01:12:04;;;;;;;4.38;2.92;;;17.50;99.90;17.60;100519.00;;;;4972238;28;93213;-69
2021/09/25 01:14:31;;;;;;;3.38;2.67;;;17.50;99.90;17.60;100517.00;;;;4971362;28;106384;-70
2021/09/25 01:17:26;;;;;;;3.97;2.92;;;17.60;99.90;17.60;100516.00;;;;4974934;28;93102;-69
2021/09/25 01:19:52;;;;;;;4.28;3.05;;;17.50;99.90;17.60;100511.00;;;;4966787;28;92931;-69
2021/09/25 01:22:17;;;;;;;4.30;2.90;;;17.50;99.90;17.60;100515.00;;;;4976059;28;108199;-71
2021/09/25 01:24:43;;;;;;;4.10;2.53;;;17.50;99.90;17.60;100511.00;;;;4974856;28;118699;-71
2021/09/25 01:27:09;;;;;;;3.28;2.80;;;17.50;99.90;17.60;100515.00;;;;4975956;28;93173;-73
2021/09/25 01:29:35;;;;;;;5.78;2.28;;;17.60;99.90;17.60;100514.00;;;;4975222;28;94072;-71
2021/09/25 01:32:02;;;;;;;3.20;2.60;;;17.50;99.90;17.60;100510.00;;;;4976535;28;93245;-71
2021/09/25 01:34:28;;;;;;;6.22;2.75;;;17.50;99.90;17.60;100513.00;;;;4975318;28;104055;-70
2021/09/25 01:36:54;;;;;;;5.60;3.05;;;17.50;99.90;17.60;100517.00;;;;4974863;28;93441;-70
2021/09/25 01:39:20;;;;;;;4.13;2.70;;;17.50;99.90;17.60;100519.00;;;;4972720;28;108965;-70
2021/09/25 01:41:46;;;;;;;5.70;3.15;;;17.50;99.90;17.60;100519.00;;;;4974717;28;109010;-70
2021/09/25 01:44:12;;;;;;;2.33;2.13;;;17.50;99.90;17.60;100519.00;;;;4974264;28;122543;-69
2021/09/25 01:46:38;;;;;;;4.25;2.60;;;17.50;99.90;17.60;100509.00;;;;4975010;28;122108;-71
2021/09/25 01:49:04;;;;;;;3.60;2.60;;;17.50;99.90;17.60;100518.00;;;;4975700;28;92547;-70
2021/09/25 01:51:30;;;;;;;5.40;2.35;;;17.50;99.90;17.60;100517.00;;;;4974614;28;105268;-70
2021/09/25 01:53:56;;;;;;;4.88;1.67;;;17.50;99.90;17.60;100520.00;;;;4974590;28;94670;-69
2021/09/25 01:56:22;;;;;;;2.83;1.80;;;17.50;99.90;17.60;100515.00;;;;4975014;28;104957;-69
2021/09/25 01:58:48;;;;;;;4.13;3.00;;;17.50;99.90;17.60;100515.00;;;;4975995;28;93650;-70
2021/09/25 02:01:13;;;;;;;3.72;2.85;;;17.50;99.90;17.60;100523.00;;;;4975680;28;92822;-70
2021/09/25 02:03:39;;;;;;;5.13;2.70;;;17.50;99.90;17.60;100520.00;;;;4970760;28;122805;-71
2021/09/25 02:06:07;;;;;;;2.33;2.08;;;17.50;99.90;17.60;100515.00;;;;4975355;28;93015;-69
2021/09/25 02:08:34;;;;;;;2.35;2.13;;;17.50;99.90;17.60;100523.00;;;;4975038;28;92796;-69
2021/09/25 02:11:00;;;;;;;7.72;2.53;;;17.40;99.90;17.60;100515.00;;;;4968582;28;91974;-69
2021/09/25 02:13:27;;;;;;;1.80;1.65;;;17.40;99.90;17.60;100528.00;;;;4966644;28;94686;-69
2021/09/25 02:15:53;;;;;;;3.47;2.53;;;17.50;99.90;17.60;100524.00;;;;4963209;28;100587;-69
2021/09/25 02:18:19;;;;;;;3.05;2.45;;;17.40;99.90;17.60;100523.00;;;;4970779;28;93962;-71
2021/09/25 02:20:45;;;;;;;2.53;2.10;;;17.40;99.90;17.60;100523.00;;;;4957626;28;92941;-71
2021/09/25 02:23:11;;;;;;;2.30;2.10;;;17.40;99.90;17.60;100517.00;;;;4975443;28;93936;-69
2021/09/25 02:25:37;;;;;;;2.83;2.08;;;17.40;99.90;17.60;100523.00;;;;4973324;28;123918;-69
2021/09/25 02:28:03;;;;;;;5.93;2.10;;;17.40;99.90;17.60;100519.00;;;;4974802;28;92922;-72
2021/09/25 02:30:29;;;;;;;2.17;1.88;;;17.40;99.90;17.60;100518.00;;;;4940450;28;93036;-69
2021/09/25 02:32:55;;;;;;;4.55;2.45;;;17.40;99.90;17.50;100518.00;;;;4973889;28;103127;-69
2021/09/25 02:35:22;;;;;;;2.42;2.15;;;17.40;99.90;17.50;100518.00;;;;4975424;28;93784;-69
2021/09/25 02:37:50;;;;;;;2.75;1.88;;;17.40;99.90;17.50;100523.00;;;;4974385;28;92844;-69
2021/09/25 02:40:18;;;;;;;3.92;2.78;;;17.40;99.90;17.50;100523.00;;;;4973728;28;92759;-70
2021/09/25 02:42:44;;;;;;;4.20;2.35;;;17.40;99.90;17.50;100531.00;;;;4973661;28;107335;-69
2021/09/25 02:45:12;;;;;;;3.35;2.05;;;17.40;99.90;17.50;100525.00;;;;4974478;28;94093;-69
2021/09/25 02:47:39;;;;;;;4.25;2.42;;;17.40;99.90;17.50;100535.00;;;;4974787;28;92988;-71
2021/09/25 02:50:08;;;;;;;3.60;2.22;;;17.40;99.90;17.50;100543.00;;;;4974824;28;92942;-71
2021/09/25 02:52:34;;;;;;;2.30;1.90;;;17.40;99.90;17.50;100538.00;;;;4973950;28;94095;-70
2021/09/25 02:54:59;;;;;;;3.22;1.75;;;17.40;99.90;17.50;100540.00;;;;4973207;28;121679;-71
2021/09/25 02:57:25;;;;;;;2.25;1.85;;;17.40;99.90;17.50;100549.00;;;;4973991;28;110710;-70
2021/09/25 02:59:51;;;;;;;7.35;2.38;;;17.40;99.90;17.50;100542.00;;;;4974138;28;107673;-71
2021/09/25 03:02:16;;;;;;;1.58;1.45;;;17.30;99.90;17.50;100538.00;;;;4973283;28;123883;-71
2021/09/25 03:04:42;;;;;;;2.20;1.90;;;17.40;99.90;17.40;100540.00;;;;4974336;28;93062;-70
2021/09/25 03:07:08;;;;;;;3.55;2.20;;;17.30;99.90;17.40;100535.00;;;;4973353;28;110492;-69
2021/09/25 03:09:35;;;;;;;3.00;2.20;;;17.30;99.90;17.40;100541.00;;;;4974075;28;92914;-70
2021/09/25 03:12:01;;;;;;;1.50;1.30;;;17.30;99.90;17.40;100532.00;;;;4972474;28;92946;-69
2021/09/25 03:14:27;;;;;;;1.27;1.17;;;17.30;99.90;17.40;100529.00;;;;4973982;28;105507;-69
2021/09/25 03:16:53;;;;;;;3.95;1.90;;;17.30;99.90;17.40;100536.00;;;;4973369;28;111165;-68
2021/09/25 03:19:19;;;;;;;2.60;1.98;;;17.30;99.90;17.40;100537.00;;;;4972194;28;92794;-69
2021/09/25 03:21:45;;;;;;;2.13;1.35;;;17.30;99.90;17.40;100539.00;;;;4974429;28;93956;-69
2021/09/25 03:24:11;;;;;;;2.47;1.90;;;17.20;99.90;17.40;100541.00;;;;4972761;28;118016;-72
2021/09/25 03:26:37;;;;;;;1.58;1.42;;;17.20;99.90;17.40;100541.00;;;;4973842;28;94124;-69
2021/09/25 03:29:03;;;;;;;4.75;1.73;;;17.20;99.90;17.30;100536.00;;;;4973786;28;92851;-69
2021/09/25 03:31:30;;;;;;;2.40;2.03;;;17.20;99.90;17.30;100538.00;;;;4954865;28;98520;-72
2021/09/25 03:33:55;;;;;;;1.88;1.65;;;17.20;99.90;17.30;100541.00;;;;4981206;28;94817;-68
2021/09/25 03:36:22;;;;;;;3.42;2.03;;;17.20;99.90;17.30;100535.00;;;;4986118;28;110721;-71
2021/09/25 03:38:47;;;;;;;2.55;1.85;;;17.20;99.90;17.30;100530.00;;;;4975193;28;109082;-71
2021/09/25 03:41:13;;;;;;;1.98;1.55;;;17.20;99.90;17.30;100537.00;;;;4955425;28;110252;-70
2021/09/25 03:43:38;;;;;;;2.17;1.77;;;17.20;99.90;17.30;100538.00;;;;4971670;28;123398;-71
2021/09/25 03:46:04;;;;;;;1.75;1.65;;;17.20;99.90;17.30;100544.00;;;;4973316;28;109347;-70
2021/09/25 03:48:30;;;;;;;3.88;1.92;;;17.20;99.90;17.30;100529.00;;;;4972707;28;108847;-69
2021/09/25 03:50:56;;;;;;;2.05;1.77;;;17.20;99.90;17.30;100535.00;;;;4972798;28;123153;-69
2021/09/25 03:53:22;;;;;;;1.67;1.45;;;17.20;99.90;17.30;100542.00;;;;4973824;28;92951;-69
2021/09/25 03:55:47;;;;;;;1.50;1.40;;;17.20;99.90;17.30;100537.00;;;;4973454;28;93656;-72
2021/09/25 03:58:13;;;;;;;1.60;1.50;;;17.20;99.90;17.30;100543.00;;;;4972613;28;108322;-71
2021/09/25 04:00:44;;;;;;;2.20;1.60;;;17.20;99.90;17.30;100539.00;;;;4972867;28;118449;-71
2021/09/25 04:03:11;;;;;;;1.98;1.75;;;17.20;99.90;17.30;100537.00;;;;4972878;28;95190;-69
2021/09/25 04:05:38;;;;;;;4.18;1.95;;;17.20;99.90;17.30;100539.00;;;;4973859;28;92951;-70
2021/09/25 04:08:04;;;;;;;2.85;1.63;;;17.20;99.90;17.30;100549.00;;;;4973635;28;93136;-71
2021/09/25 04:10:30;;;;;;;2.20;1.67;;;17.20;99.90;17.30;100547.00;;;;4972728;28;102149;-71
2021/09/25 04:12:56;;;;;;;1.80;1.70;;;17.20;99.90;17.30;100543.00;;;;4973209;28;93380;-71
2021/09/25 04:15:22;;;;;;;2.80;1.10;;;17.20;99.90;17.40;100552.00;;;;4972788;28;106508;-70
2021/09/25 04:17:49;;;;;;;3.13;2.15;;;17.20;99.90;17.30;100548.00;;;;4973742;28;92983;-71
2021/09/25 04:20:15;;;;;;;1.38;1.27;;;17.20;99.90;17.30;100553.00;;;;4972033;28;110142;-69
2021/09/25 04:22:41;;;;;;;2.03;1.52;;;17.20;99.90;17.30;100546.00;;;;4971974;28;124525;-69
2021/09/25 04:25:08;;;;;;;2.20;2.00;;;17.20;99.90;17.30;100545.00;;;;4972869;28;92857;-70
2021/09/25 04:27:33;;;;;;;1.50;1.40;;;17.20;99.90;17.30;100542.00;;;;4973043;28;92795;-69
2021/09/25 04:30:01;;;;;;;2.10;1.65;;;17.20;99.90;17.30;100556.00;;;;4972585;28;92836;-69
2021/09/25 04:32:28;;;;;;;3.40;1.30;;;17.20;99.90;17.30;100550.00;;;;4972968;28;96004;-69
2021/09/25 04:34:54;;;;;;;1.58;1.48;;;17.10;99.90;17.30;100547.00;;;;4973111;28;93141;-69
2021/09/25 04:37:20;;;;;;;3.88;1.80;;;17.20;99.90;17.30;100551.00;;;;4974335;28;92016;-69
2021/09/25 04:39:46;;;;;;;3.92;2.05;;;17.10;99.90;17.30;100552.00;;;;4953660;28;96716;-70
2021/09/25 04:42:12;;;;;;;2.05;1.77;;;17.10;99.90;17.30;100559.00;;;;4972251;28;102332;-70
2021/09/25 04:44:38;;;;;;;4.72;2.15;;;17.20;99.90;17.30;100556.00;;;;4970182;28;93701;-69
2021/09/25 04:47:03;;;;;;;1.20;1.10;;;17.10;99.90;17.20;100556.00;;;;4973491;28;92819;-69
2021/09/25 04:49:29;;;;;;;2.17;1.50;;;17.10;99.90;17.20;100549.00;;;;4971888;28;100798;-71
2021/09/25 04:51:55;;;;;;;1.77;1.27;;;17.10;99.90;17.20;100551.00;;;;4972999;28;104742;-69
2021/09/25 04:54:21;;;;;;;2.13;1.67;;;17.10;99.90;17.20;100554.00;;;;4975250;28;92876;-69
2021/09/25 04:56:46;;;;;;;4.35;1.88;;;17.10;99.90;17.20;100552.00;;;;4975474;28;109846;-70
2021/09/25 04:59:12;;;;;;;1.77;1.67;;;17.10;99.90;17.20;100557.00;;;;4944806;28;122927;-70
2021/09/25 05:01:38;;;;;;;4.10;2.10;;;17.10;99.90;17.20;100562.00;;;;4975691;28;122677;-70
2021/09/25 05:04:04;;;;;;;4.13;1.52;;;17.10;99.90;17.20;100560.00;;;;4974832;28;111668;-70
2021/09/25 05:06:30;;;;;;;1.95;1.75;;;17.10;99.90;17.20;100560.00;;;;4976696;28;92933;-70
2021/09/25 05:08:57;;;;;;;1.58;1.40;;;17.10;99.90;17.20;100552.00;;;;4974647;28;93638;-69
2021/09/25 05:11:25;;;;;;;2.38;1.45;;;17.10;99.90;17.20;100559.00;;;;4961813;28;94751;-70
2021/09/25 05:13:52;;;;;;;2.00;1.55;;;17.10;99.90;17.20;100563.00;;;;4990346;27;92973;-69
2021/09/25 05:16:18;;;;;;;3.83;1.55;;;17.10;99.90;17.20;100560.00;;;;4976283;28;92818;-69
2021/09/25 05:18:44;;;;;;;1.70;1.55;;;17.50;99.90;17.20;100563.00;;;;4975099;28;122840;-68
2021/09/25 05:21:09;;;;;;;2.38;1.52;;;17.10;99.90;17.20;100561.00;;;;4974802;28;121493;-69
2021/09/25 05:23:35;;;;;;;1.50;1.30;;;17.10;99.90;17.20;100559.00;;;;4954965;28;96250;-70
2021/09/25 05:26:03;;;;;;;2.22;1.25;;;17.20;99.90;17.20;100565.00;;;;4960499;28;109093;-70
2021/09/25 05:28:28;;;;;;;2.05;1.55;;;17.10;99.90;17.20;100573.00;;;;4970131;28;93490;-69
2021/09/25 05:30:55;;;;;;;2.50;1.67;;;17.10;99.90;17.20;100568.00;;;;4991928;28;122400;-69
2021/09/25 05:33:21;;;;;;;1.88;1.52;;;17.10;99.90;17.20;100572.00;;;;4991015;27;94049;-70
2021/09/25 05:35:47;;;;;;;1.73;1.40;;;17.10;99.90;17.30;100569.00;;;;4981545;28;108141;-70
2021/09/25 05:38:12;;;;;;;2.17;1.10;;;17.10;99.90;17.30;100572.00;;;;4991028;27;123024;-69
2021/09/25 05:40:38;;;;;;;2.72;1.60;;;17.10;99.90;17.30;100581.00;;;;4991106;28;101818;-70
2021/09/25 05:43:04;;;;;;;1.33;1.20;;;17.20;99.90;17.30;100579.00;;;;4986964;27;109923;-69
2021/09/25 05:45:30;;;;;;;2.80;1.38;;;17.10;99.90;17.30;100591.00;;;;4986007;28;108127;-71
2021/09/25 05:47:56;;;;;;;1.33;1.20;;;17.20;99.90;17.30;100583.00;;;;4972035;27;121879;-69
2021/09/25 05:50:22;;;;;;;3.42;1.17;;;17.20;99.90;17.30;100597.00;;;;4976545;28;93389;-70
2021/09/25 05:52:47;;;;;;;1.77;1.48;;;17.20;99.90;17.30;100593.00;;;;4992250;28;92957;-69
2021/09/25 05:55:14;;;;;;;1.20;1.10;;;17.20;99.90;17.30;100591.00;;;;4991711;28;108374;-70
2021/09/25 05:57:43;;;;;;;5.07;1.38;;;17.20;99.90;17.30;100590.00;;;;4991665;28;94772;-70
2021/09/25 06:00:09;;;;;;;4.30;1.60;;;17.20;99.90;17.40;100596.00;;;;4990232;28;93485;-70
2021/09/25 06:02:41;;;;;;;1.23;1.13;;;17.20;99.90;17.40;100588.00;;;;4991096;27;93003;-69
2021/09/25 06:05:09;;;;;;;2.40;1.42;;;17.40;99.90;17.40;100592.00;;;;4967967;28;93025;-70
2021/09/25 06:07:36;;;;;;;1.40;1.30;;;17.20;99.90;17.40;100598.00;;;;4972836;28;94226;-70
2021/09/25 06:10:04;;;;;;;1.60;1.45;;;17.30;99.90;17.40;100595.00;;;;4977134;28;101891;-70
2021/09/25 06:12:30;;;;;;;3.88;1.63;;;17.30;99.90;17.40;100597.00;;;;4973401;28;93254;-70
2021/09/25 06:14:55;;;;;;;2.65;1.52;;;17.30;99.90;17.40;100600.00;;;;4992097;27;98380;-71
2021/09/25 06:17:22;;;;;;;1.30;1.05;;;17.30;99.90;17.40;100588.00;;;;4985052;28;94302;-70
2021/09/25 06:19:49;;;;;;;1.65;1.33;;;17.30;99.90;17.50;100604.00;;;;4986956;28;103906;-73
2021/09/25 06:22:15;;;;;;;1.60;1.50;;;17.30;99.90;17.50;100607.00;;;;4988689;28;93953;-72
2021/09/25 06:24:41;;;;;;;1.45;1.35;;;17.30;99.90;17.50;100613.00;;;;4981893;28;108792;-69
2021/09/25 06:27:07;;;;;;;2.97;1.38;;;17.40;99.90;17.50;100612.00;;;;4987482;28;93813;-69
2021/09/25 06:29:32;;;;;;;1.33;1.20;;;17.40;99.90;17.60;100618.00;;;;4985220;28;122995;-70
2021/09/25 06:31:58;;;;;;;1.60;1.45;;;17.40;99.90;17.60;100615.00;;;;4991804;28;92719;-70
2021/09/25 06:34:24;;;;;;;5.22;1.80;;;17.40;99.90;17.60;100618.00;;;;4987771;28;109309;-69
2021/09/25 06:36:50;;;;;;;4.43;1.58;;;17.50;99.90;17.60;100607.00;;;;4991503;28;114888;-69
2021/09/25 06:39:16;;;;;;;3.08;1.58;;;17.50;99.90;17.70;100613.00;;;;4985305;28;108902;-70
2021/09/25 06:41:42;;;;;;;1.73;1.55;;;17.50;99.90;17.70;100622.00;;;;4982307;28;92783;-72
2021/09/25 06:44:08;;;;;;;1.48;1.25;;;17.60;99.90;17.80;100624.00;;;;4989357;28;94358;-70
2021/09/25 06:46:34;;;;;;;1.42;0.93;;;17.60;99.90;17.80;100623.00;;;;4990565;28;94145;-69
2021/09/25 06:49:00;;;;;;;4.93;1.40;;;17.70;99.90;17.90;100618.00;;;;4991632;27;94662;-71
2021/09/25 06:51:27;;;;;;;1.60;1.50;;;17.70;99.90;17.90;100627.00;;;;4986432;28;92632;-70
2021/09/25 06:53:54;;;;;;;1.67;1.30;;;17.80;99.90;18.00;100627.00;;;;4983100;28;92931;-69
2021/09/25 06:56:20;;;;;;;1.27;1.02;;;17.80;99.90;18.10;100629.00;;;;4991376;28;92808;-70
2021/09/25 06:58:46;;;;;;;1.23;1.13;;;17.80;99.90;18.10;100622.00;;;;4972477;28;94168;-69
2021/09/25 07:01:12;;;;;;;2.97;1.42;;;17.90;99.90;18.20;100626.00;;;;4991121;28;96983;-71
2021/09/25 07:03:37;;;;;;;2.25;1.60;;;18.00;99.90;18.20;100623.00;;;;4984409;27;109573;-70
2021/09/25 07:06:03;;;;;;;1.17;0.95;;;18.00;99.90;18.30;100625.00;;;;4986819;28;93397;-69
2021/09/25 07:08:29;;;;;;;3.53;1.55;;;18.10;99.90;18.40;100628.00;;;;4976951;28;109441;-69
2021/09/25 07:10:55;;;;;;;1.33;1.23;;;18.20;99.90;18.40;100634.00;;;;4999666;28;99161;-70
2021/09/25 07:13:20;;;;;;;4.10;1.50;;;18.20;99.90;18.50;100628.00;;;;4995165;27;93312;-71
2021/09/25 07:15:46;;;;;;;2.22;1.58;;;18.40;99.90;18.50;100631.00;;;;4991276;28;122921;-69
2021/09/25 07:18:12;;;;;;;1.60;1.50;;;18.40;99.90;18.60;100636.00;;;;4989280;28;122999;-70
2021/09/25 07:20:38;;;;;;;2.40;1.73;;;18.40;99.90;18.70;100637.00;;;;4956629;28;93537;-70
2021/09/25 07:23:04;;;;;;;2.00;1.80;;;18.50;99.90;18.70;100639.00;;;;4991016;27;93052;-70
2021/09/25 07:25:30;;;;;;;3.42;1.67;;;18.50;99.90;18.80;100642.00;;;;4971573;28;95516;-69
2021/09/25 07:27:56;;;;;;;1.67;1.58;;;18.60;99.90;18.90;100648.00;;;;4990670;27;92221;-70
2021/09/25 07:30:22;;;;;;;2.88;1.33;;;18.70;99.90;18.90;100635.00;;;;4991333;28;93013;-72
2021/09/25 07:32:48;;;;;;;2.72;1.80;;;18.70;99.90;18.90;100643.00;;;;4985123;28;92669;-69
2021/09/25 07:35:15;;;;;;;3.80;1.92;;;18.70;99.90;19.00;100654.00;;;;4989809;28;124042;-69
2021/09/25 07:37:42;;;;;;;1.55;1.40;;;18.80;99.90;19.00;100652.00;;;;4990473;28;95036;-70
2021/09/25 07:40:10;;;;;;;2.20;1.65;;;18.80;99.90;19.10;100659.00;;;;4955124;28;92661;-70
2021/09/25 07:42:36;;;;;;;1.52;1.42;;;18.90;99.90;19.20;100664.00;;;;4972799;28;93154;-70
2021/09/25 07:45:04;;;;;;;2.72;1.92;;;18.90;99.90;19.30;100662.00;;;;4989914;28;106240;-70
2021/09/25 07:47:29;;;;;;;3.25;1.98;;;19.00;99.90;19.30;100665.00;;;;4988087;28;106351;-70
2021/09/25 07:49:55;;;;;;;1.88;1.48;;;19.10;99.90;19.40;100663.00;;;;4982709;28;111624;-70
2021/09/25 07:52:21;;;;;;;2.28;1.83;;;19.20;99.90;19.50;100664.00;;;;4990218;28;108007;-69
2021/09/25 07:54:46;;;;;;;2.50;2.03;;;19.20;99.90;19.50;100666.00;;;;4987837;28;123984;-70
2021/09/25 07:57:12;;;;;;;1.88;1.58;;;19.30;99.90;19.60;100670.00;;;;4989769;28;122339;-70
2021/09/25 07:59:38;;;;;;;1.88;1.70;;;19.40;99.90;19.70;100666.00;;;;4983911;28;93782;-70
2021/09/25 08:02:04;;;;;;;2.42;1.85;;;19.50;99.90;19.80;100660.00;;;;4988765;28;108501;-70
2021/09/25 08:04:30;;;;;;;2.67;1.58;;;19.50;99.90;19.90;100670.00;;;;4989019;27;103745;-71
2021/09/25 08:06:55;;;;;;;7.32;2.08;;;19.60;99.90;20.10;100669.00;;;;4983884;28;117015;-69
2021/09/25 08:09:23;;;;;;;3.70;1.85;;;19.90;99.90;20.40;100670.00;;;;4969906;28;92787;-69
2021/09/25 08:11:48;;;;;;;2.65;2.13;;;20.10;99.90;20.60;100662.00;;;;4986675;28;92758;-69
2021/09/25 08:14:14;;;;;;;1.55;1.38;;;20.30;99.90;20.80;100671.00;;;;4989078;27;122581;-70
2021/09/25 08:16:40;;;;;;;2.45;1.88;;;20.50;99.90;21.00;100667.00;;;;4988550;28;123483;-70
2021/09/25 08:19:05;;;;;;;2.40;2.17;;;20.70;99.60;21.20;100669.00;;;;4973707;28;110370;-70
2021/09/25 08:21:31;;;;;;;4.35;2.20;;;20.90;98.10;21.30;100671.00;;;;4989576;28;109713;-70
2021/09/25 08:23:57;;;;;;;2.50;2.03;;;21.00;97.10;21.30;100669.00;;;;4988056;28;117637;-69
2021/09/25 08:26:23;;;;;;;1.52;1.25;;;21.00;97.00;21.30;100670.00;;;;4988638;28;105525;-71
2021/09/25 08:28:49;;;;;;;2.33;2.10;;;21.10;96.50;21.30;100678.00;;;;4988606;27;109477;-70
2021/09/25 08:31:16;;;;;;;3.78;2.53;;;21.10;95.70;21.10;100681.00;;;;4990001;28;93231;-70
2021/09/25 08:33:41;;;;;;;2.85;1.60;;;21.00;95.20;21.00;100681.00;;;;4988909;27;123233;-70
2021/09/25 08:36:07;;;;;;;3.70;1.80;;;20.90;95.60;21.00;100690.00;;;;4988325;28;122772;-69
2021/09/25 08:38:33;;;;;;;2.75;1.80;;;20.90;96.40;21.00;100692.00;;;;4989394;28;92756;-70
2021/09/25 08:40:59;;;;;;;3.35;2.42;;;20.80;96.60;21.00;100688.00;;;;4990960;28;92195;-71
2021/09/25 08:43:26;;;;;;;1.27;1.17;;;20.80;96.50;21.00;100690.00;;;;4989521;28;93421;-71
2021/09/25 08:46:02;;;;;;;1.95;1.80;;;20.80;96.30;21.20;100685.00;;;;4990147;28;93271;-71
2021/09/25 08:48:29;;;;;;;5.30;1.67;;;20.90;96.50;21.30;100687.00;;;;4989002;28;94728;-70
2021/09/25 08:50:56;;;;;;;1.90;1.52;;;21.10;96.60;21.40;100697.00;;;;4990042;28;93154;-72
2021/09/25 08:53:22;;;;;;;4.03;2.03;;;21.20;96.30;21.50;100699.00;;;;4970699;28;93543;-71
2021/09/25 08:55:48;;;;;;;4.57;1.98;;;21.20;94.90;21.40;100702.00;;;;4986797;28;107735;-71
2021/09/25 08:58:14;;;;;;;2.13;1.85;;;21.20;94.70;21.40;100703.00;;;;4981701;28;93871;-70
2021/09/25 09:00:54;;;;;;;3.58;2.00;;;21.20;94.50;21.30;100709.00;;;;4988535;28;109233;-70
2021/09/25 09:03:28;;;;;;;3.10;1.83;;;21.10;94.70;21.30;100709.00;;;;4949819;28;95444;-70
2021/09/25 09:06:10;;;;;;;2.05;1.58;;;21.10;94.80;21.30;100721.00;;;;4989508;28;92252;-70
2021/09/25 09:08:39;;;;;;;1.35;1.25;;;21.10;94.70;21.30;100715.00;;;;4989234;28;92625;-71
2021/09/25 09:11:06;;;;;;;2.17;1.50;;;21.10;94.80;21.20;100716.00;;;;4990142;28;93133;-69
2021/09/25 09:13:35;;;;;;;2.25;1.95;;;21.00;94.70;21.10;100716.00;;;;4988510;28;95013;-70
2021/09/25 09:16:04;;;;;;;5.80;2.67;;;21.20;94.70;21.10;100715.00;;;;4969852;28;93770;-70
2021/09/25 09:18:31;;;;;;;4.50;3.20;;;20.90;95.10;21.00;100719.00;;;;4969770;28;92958;-69
2021/09/25 09:21:21;;;;;;;4.13;2.78;;;20.80;94.80;20.90;100717.00;;;;4989215;28;92704;-70
2021/09/25 09:24:04;;;;;;;3.55;1.77;;;20.80;95.30;21.00;100719.00;;;;4970200;28;94923;-70
2021/09/25 09:26:38;;;;;;;6.20;3.75;;;20.80;95.80;21.00;100714.00;;;;4970751;28;92891;-71
2021/09/25 09:29:06;;;;;;;4.78;2.72;;;20.80;95.30;21.00;100721.00;;;;4971016;28;93114;-70
2021/09/25 09:31:33;;;;;;;4.20;3.40;;;20.80;95.00;21.00;100720.00;;;;4984292;28;92079;-70
2021/09/25 09:34:02;;;;;;;6.63;1.98;;;20.80;95.20;20.90;100714.00;;;;4988522;27;97444;-70
2021/09/25 09:36:39;;;;;;;2.45;1.50;;;20.70;95.40;21.00;100720.00;;;;4989058;27;93126;-70
2021/09/25 09:39:19;;;;;;;2.20;1.52;;;20.80;95.60;21.00;100731.00;;;;4991932;27;94056;-70
2021/09/25 09:41:52;;;;;;;4.10;1.50;;;20.80;95.70;21.10;100739.00;;;;4974570;28;93232;-70
2021/09/25 09:44:28;;;;;;;4.13;1.55;;;20.80;95.80;21.20;100727.00;;;;4956749;28;94750;-71
2021/09/25 09:47:04;;;;;;;4.43;1.95;;;20.90;96.00;21.20;100736.00;;;;4974094;28;93186;-72
2021/09/25 09:49:39;;;;;;;6.40;2.72;;;21.00;96.00;21.30;100734.00;;;;4992921;27;92923;-70
2021/09/25 09:52:07;;;;;;;4.65;2.95;;;21.00;96.00;21.30;100742.00;;;;4973854;28;92940;-70
2021/09/25 09:54:43;;;;;;;3.28;2.97;;;21.00;96.30;21.30;100746.00;;;;4963193;28;94678;-70
2021/09/25 09:57:18;;;;;;;4.30;2.22;;;21.10;96.40;21.20;100743.00;;;;4992768;28;93081;-70
2021/09/25 09:59:49;;;;;;;2.70;2.30;;;21.00;96.40;21.20;100731.00;;;;4958140;28;92805;-71
2021/09/25 10:02:16;;;;;;;3.25;2.30;;;21.00;96.60;21.20;100737.00;;;;4993217;28;93168;-70
2021/09/25 10:04:42;;;;;;;2.85;2.35;;;21.00;96.70;21.30;100742.00;;;;4991777;27;94325;-70
2021/09/25 10:07:09;;;;;;;4.20;2.33;;;21.00;96.20;21.40;100734.00;;;;4975728;28;99029;-69
2021/09/25 10:09:38;;;;;;;2.97;1.83;;;21.10;96.30;21.80;100730.00;;;;4982392;27;93370;-71
2021/09/25 10:12:17;;;;;;;2.15;1.30;;;21.70;96.50;22.40;100737.00;;;;4957197;28;93088;-70
2021/09/25 10:14:46;;;;;;;3.25;2.35;;;21.90;96.00;22.90;100742.00;;;;4961767;28;95306;-70
2021/09/25 10:17:15;;;;;;;2.67;1.58;;;22.40;93.70;23.10;100736.00;;;;4985624;28;93637;-71
2021/09/25 10:19:43;;;;;;;3.75;1.67;;;22.70;91.20;23.20;100733.00;;;;4990876;27;93146;-70
2021/09/25 10:22:32;;;;;;;2.25;1.70;;;22.80;89.20;23.20;100740.00;;;;4967668;28;92307;-70
2021/09/25 10:25:04;;;;;;;2.38;1.42;;;22.90;88.00;23.30;100739.00;;;;4965994;28;92806;-69
2021/09/25 10:27:38;;;;;;;3.97;2.88;;;23.00;86.40;23.30;100733.00;;;;4968164;28;107327;-69
2021/09/25 10:30:08;;;;;;;2.28;1.35;;;23.00;86.50;23.50;100739.00;;;;4981714;28;93744;-70
2021/09/25 10:32:43;;;;;;;1.42;1.30;;;23.20;86.50;23.50;100737.00;;;;4984622;28;92638;-70
2021/09/25 10:35:18;;;;;;;1.67;1.42;;;23.30;85.50;23.50;100737.00;;;;4983496;28;93133;-69
2021/09/25 10:37:46;;;;;;;1.60;1.20;;;23.30;84.70;23.40;100739.00;;;;4972915;27;94585;-70
2021/09/25 10:40:25;;;;;;;1.35;1.23;;;23.20;84.30;23.30;100736.00;;;;4988370;28;93119;-69
2021/09/25 10:42:57;;;;;;;2.35;1.77;;;23.10;84.30;23.30;100739.00;;;;4966017;27;92970;-69
2021/09/25 10:45:33;;;;;;;1.52;1.15;;;23.10;83.80;23.10;100736.00;;;;4991594;28;93257;-69